createdAt,value
2023-02-09T00:01:27.516Z,72.91
2023-02-09T00:03:54.656Z,73.01
2023-02-09T00:06:23.733Z,73.01
2023-02-09T00:08:51.220Z,73.35
2023-02-09T00:11:43.896Z,73.14
2023-02-09T00:14:12.058Z,73.28
2023-02-09T00:16:39.951Z,73.19
2023-02-09T00:19:07.208Z,73.23
2023-02-09T00:21:34.201Z,73.21
2023-02-09T00:24:01.289Z,73.17
2023-02-09T00:26:28.258Z,73.64
2023-02-09T00:28:55.366Z,73.73
2023-02-09T00:31:22.546Z,73.71
2023-02-09T00:33:49.621Z,73.59
2023-02-09T00:36:17.697Z,73.69
2023-02-09T00:38:44.895Z,73.46
2023-02-09T00:41:13.529Z,73.84
2023-02-09T00:43:40.980Z,73.92
2023-02-09T00:46:08.375Z,73.93
2023-02-09T00:48:36.685Z,73.87
2023-02-09T00:51:03.701Z,74.12
2023-02-09T00:53:30.790Z,73.88
2023-02-09T00:56:01.016Z,73.79
2023-02-09T00:58:28.218Z,73.87
2023-02-09T01:00:55.154Z,74.05
2023-02-09T01:03:24.825Z,74.01
2023-02-09T01:05:53.419Z,74.36
2023-02-09T01:08:20.339Z,74.41
2023-02-09T01:10:47.612Z,74.47
2023-02-09T01:13:15.511Z,74.39
2023-02-09T01:15:42.538Z,74.57
2023-02-09T01:18:09.379Z,74.31
2023-02-09T01:20:36.474Z,73.93
2023-02-09T01:23:03.485Z,72.92
2023-02-09T01:25:30.822Z,71.00
2023-02-09T01:27:58.100Z,71.47
2023-02-09T01:30:25.222Z,71.81
2023-02-09T01:32:52.421Z,71.71
2023-02-09T01:35:20.038Z,71.32
2023-02-09T01:37:47.295Z,70.99
2023-02-09T01:40:15.131Z,70.96
2023-02-09T01:42:42.073Z,70.79
2023-02-09T01:45:21.318Z,71.28
2023-02-09T01:48:00.442Z,71.48
2023-02-09T01:50:30.909Z,71.16
2023-02-09T01:52:58.093Z,71.08
2023-02-09T01:55:29.901Z,71.27
2023-02-09T01:58:05.827Z,71.76
2023-02-09T02:00:33.084Z,71.85
2023-02-09T02:03:04.450Z,71.86
2023-02-09T02:05:37.415Z,71.62
2023-02-09T02:08:26.908Z,71.42
2023-02-09T02:10:54.502Z,70.76
2023-02-09T02:13:22.223Z,71.60
2023-02-09T02:15:56.346Z,71.82
2023-02-09T02:18:57.186Z,70.87
2023-02-09T02:21:42.337Z,69.94
2023-02-09T02:24:28.505Z,69.39
2023-02-09T02:26:58.147Z,69.13
2023-02-09T02:29:52.859Z,68.99
2023-02-09T02:32:32.961Z,68.86
2023-02-09T02:35:28.017Z,68.74
2023-02-09T02:38:04.144Z,69.50
2023-02-09T02:40:31.172Z,69.47
2023-02-09T02:43:09.241Z,69.78
2023-02-09T02:45:56.450Z,69.40
2023-02-09T02:48:47.042Z,69.49
2023-02-09T02:51:38.293Z,69.11
2023-02-09T02:54:17.962Z,69.19
2023-02-09T02:56:51.368Z,69.23
2023-02-09T02:59:23.957Z,69.41
2023-02-09T03:02:00.135Z,69.55
2023-02-09T03:04:29.180Z,69.99
2023-02-09T03:06:56.102Z,69.49
2023-02-09T03:09:23.559Z,69.51
2023-02-09T03:11:56.188Z,69.19
2023-02-09T03:14:48.071Z,69.14
2023-02-09T03:17:33.674Z,70.10
2023-02-09T03:20:26.823Z,70.32
2023-02-09T03:23:02.445Z,69.74
2023-02-09T03:25:37.727Z,69.70
2023-02-09T03:28:07.387Z,69.93
2023-02-09T03:30:35.690Z,69.84
2023-02-09T03:33:05.152Z,69.71
2023-02-09T03:35:38.793Z,70.32
2023-02-09T03:38:08.530Z,70.96
2023-02-09T03:40:35.576Z,71.13
2023-02-09T03:43:02.559Z,71.43
2023-02-09T03:45:29.483Z,71.67
2023-02-09T03:47:56.569Z,71.95
2023-02-09T03:50:23.716Z,72.49
2023-02-09T03:52:50.991Z,72.58
2023-02-09T03:55:18.167Z,72.68
2023-02-09T03:57:45.469Z,72.77
2023-02-09T04:00:13.148Z,73.11
2023-02-09T04:02:42.768Z,72.85
2023-02-09T04:05:10.294Z,72.66
2023-02-09T04:07:40.044Z,72.52
2023-02-09T04:10:07.404Z,72.65
2023-02-09T04:12:34.336Z,72.36
2023-02-09T04:15:01.889Z,72.50
2023-02-09T04:17:31.645Z,73.01
2023-02-09T04:19:59.203Z,73.07
2023-02-09T04:22:26.176Z,73.09
2023-02-09T04:25:11.890Z,73.31
2023-02-09T04:27:39.720Z,73.53
2023-02-09T04:30:07.152Z,73.33
2023-02-09T04:32:34.169Z,73.02
2023-02-09T04:35:01.034Z,73.19
2023-02-09T04:37:30.006Z,73.04
2023-02-09T04:39:56.921Z,72.75
2023-02-09T04:42:24.853Z,72.67
2023-02-09T04:44:51.829Z,72.72
2023-02-09T04:47:37.225Z,73.17
2023-02-09T04:50:04.448Z,72.78
2023-02-09T04:52:31.424Z,72.83
2023-02-09T04:54:58.301Z,72.86
2023-02-09T04:57:43.761Z,72.67
2023-02-09T05:00:11.544Z,72.28
2023-02-09T05:02:38.477Z,71.13
2023-02-09T05:05:05.708Z,71.20
2023-02-09T05:07:32.609Z,71.27
2023-02-09T05:09:59.458Z,71.74
2023-02-09T05:12:26.618Z,71.87
2023-02-09T05:14:53.578Z,72.39
2023-02-09T05:17:21.292Z,72.28
2023-02-09T05:19:48.859Z,72.52
2023-02-09T05:22:16.101Z,71.98
2023-02-09T05:24:43.025Z,71.87
2023-02-09T05:27:10.143Z,72.13
2023-02-09T05:29:37.122Z,71.71
2023-02-09T05:32:04.413Z,71.71
2023-02-09T05:34:31.356Z,71.53
2023-02-09T05:36:58.579Z,71.78
2023-02-09T05:39:25.481Z,72.04
2023-02-09T05:42:11.269Z,72.20
2023-02-09T05:44:38.402Z,72.00
2023-02-09T05:47:05.361Z,72.08
2023-02-09T05:49:32.331Z,72.42
2023-02-09T05:51:59.258Z,72.58
2023-02-09T05:54:26.524Z,72.62
2023-02-09T05:56:53.432Z,72.44
2023-02-09T05:59:20.647Z,73.14
2023-02-09T06:01:47.613Z,72.93
2023-02-09T06:04:14.533Z,72.77
2023-02-09T06:06:41.565Z,73.42
2023-02-09T06:09:08.604Z,73.74
2023-02-09T06:11:35.793Z,73.68
2023-02-09T06:14:02.741Z,74.02
2023-02-09T06:16:30.060Z,74.03
2023-02-09T06:18:56.912Z,74.01
2023-02-09T06:21:23.759Z,73.71
2023-02-09T06:23:50.691Z,73.50
2023-02-09T06:26:18.351Z,72.43
2023-02-09T06:28:46.223Z,72.20
2023-02-09T06:31:13.678Z,71.55
2023-02-09T06:33:40.702Z,71.58
2023-02-09T06:36:08.783Z,69.46
2023-02-09T06:38:37.666Z,68.96
2023-02-09T06:41:05.660Z,69.49
2023-02-09T06:43:32.643Z,69.79
2023-02-09T06:46:08.554Z,69.55
2023-02-09T06:48:36.590Z,69.93
2023-02-09T06:51:11.336Z,70.65
2023-02-09T06:53:39.853Z,70.93
2023-02-09T06:56:07.319Z,70.31
2023-02-09T06:58:35.033Z,70.16
2023-02-09T07:01:07.198Z,70.08
2023-02-09T07:03:34.463Z,70.12
2023-02-09T07:06:09.256Z,69.32
2023-02-09T07:08:36.996Z,69.51
2023-02-09T07:11:06.320Z,68.10
2023-02-09T07:13:33.587Z,67.39
2023-02-09T07:16:02.360Z,67.22
2023-02-09T07:18:29.673Z,67.31
2023-02-09T07:20:59.124Z,67.00
2023-02-09T07:23:26.272Z,66.90
2023-02-09T07:25:53.727Z,66.86
2023-02-09T07:28:21.138Z,66.40
2023-02-09T07:30:52.602Z,65.59
2023-02-09T07:33:21.013Z,65.74
2023-02-09T07:35:48.877Z,65.22
2023-02-09T07:38:16.410Z,64.85
2023-02-09T07:40:46.782Z,65.05
2023-02-09T07:43:14.532Z,64.26
2023-02-09T07:45:42.061Z,64.08
2023-02-09T07:48:13.510Z,64.12
2023-02-09T07:50:40.686Z,64.49
2023-02-09T07:53:07.626Z,63.67
2023-02-09T07:55:34.813Z,63.57
2023-02-09T07:58:01.852Z,63.84
2023-02-09T08:00:29.963Z,63.54
2023-02-09T08:02:57.196Z,62.65
2023-02-09T08:05:35.134Z,62.54
2023-02-09T08:08:02.444Z,63.05
2023-02-09T08:10:31.341Z,61.83
2023-02-09T08:13:00.682Z,61.94
2023-02-09T08:15:49.876Z,60.49
2023-02-09T08:18:24.312Z,60.47
2023-02-09T08:20:53.248Z,60.31
2023-02-09T08:23:32.899Z,60.28
2023-02-09T08:26:05.923Z,59.12
2023-02-09T08:28:43.653Z,59.04
2023-02-09T08:31:16.572Z,58.48
2023-02-09T08:33:44.955Z,57.65
2023-02-09T08:36:13.794Z,58.12
2023-02-09T08:38:40.858Z,58.13
2023-02-09T08:41:10.785Z,58.10
2023-02-09T08:43:38.067Z,58.25
2023-02-09T08:46:11.761Z,57.49
2023-02-09T08:48:45.461Z,57.17
2023-02-09T08:51:14.745Z,57.30
2023-02-09T08:53:43.328Z,57.19
2023-02-09T08:56:10.592Z,57.25
2023-02-09T08:58:37.669Z,57.95
2023-02-09T09:01:05.629Z,57.56
2023-02-09T09:03:33.369Z,56.69
2023-02-09T09:06:02.784Z,56.50
2023-02-09T09:08:32.548Z,55.88
2023-02-09T09:11:00.473Z,56.25
2023-02-09T09:13:28.127Z,55.77
2023-02-09T09:15:55.500Z,55.94
2023-02-09T09:18:24.414Z,56.08
2023-02-09T09:20:52.107Z,55.15
2023-02-09T09:23:21.180Z,54.85
2023-02-09T09:25:48.652Z,55.95
2023-02-09T09:28:26.667Z,55.86
2023-02-09T09:30:54.217Z,54.33
2023-02-09T09:33:21.880Z,54.22
2023-02-09T09:35:48.864Z,53.80
2023-02-09T09:38:16.380Z,53.76
2023-02-09T09:40:45.413Z,54.01
2023-02-09T09:43:22.762Z,53.15
2023-02-09T09:45:50.669Z,53.82
2023-02-09T09:48:32.289Z,52.47
2023-02-09T09:51:10.180Z,53.25
2023-02-09T09:53:38.803Z,53.67
2023-02-09T09:56:08.960Z,53.49
2023-02-09T09:58:41.377Z,53.37
2023-02-09T10:01:16.865Z,53.15
2023-02-09T10:03:44.683Z,53.69
2023-02-09T10:06:21.971Z,53.61
2023-02-09T10:08:52.064Z,53.16
2023-02-09T10:11:28.751Z,53.23
2023-02-09T10:13:59.491Z,52.04
2023-02-09T10:16:34.654Z,50.96
2023-02-09T10:19:04.483Z,49.88
2023-02-09T10:21:35.979Z,50.59
2023-02-09T10:24:11.779Z,49.51
2023-02-09T10:26:40.617Z,49.16
2023-02-09T10:29:10.924Z,49.82
2023-02-09T10:31:50.525Z,48.89
2023-02-09T10:34:21.423Z,49.68
2023-02-09T10:37:05.634Z,49.50
2023-02-09T10:39:35.606Z,49.17
2023-02-09T10:42:27.608Z,49.69
2023-02-09T10:44:59.876Z,50.23
2023-02-09T10:47:30.241Z,50.52
2023-02-09T10:50:04.752Z,50.07
2023-02-09T10:52:37.524Z,49.28
2023-02-09T10:55:16.023Z,48.84
2023-02-09T10:57:42.965Z,48.35
2023-02-09T11:00:27.847Z,49.12
2023-02-09T11:03:03.925Z,48.63
2023-02-09T11:05:34.021Z,48.53
2023-02-09T11:08:23.175Z,48.25
2023-02-09T11:11:02.738Z,46.84
2023-02-09T11:13:33.331Z,47.34
2023-02-09T11:16:40.738Z,48.04
2023-02-09T11:19:27.885Z,47.29
2023-02-09T11:22:05.703Z,47.37
2023-02-09T11:25:14.400Z,47.15
2023-02-09T11:28:03.114Z,46.85
2023-02-09T11:30:50.739Z,47.02
2023-02-09T11:33:47.246Z,45.75
2023-02-09T11:36:33.331Z,45.75
2023-02-09T11:39:03.216Z,47.42
2023-02-09T11:41:58.937Z,46.52
2023-02-09T11:44:32.870Z,45.90
2023-02-09T11:47:05.234Z,46.51
2023-02-09T11:49:49.496Z,46.76
2023-02-09T11:52:35.760Z,44.89
2023-02-09T11:55:20.738Z,44.91
2023-02-09T11:58:06.706Z,44.69
2023-02-09T12:00:56.218Z,44.84
2023-02-09T12:03:24.905Z,45.93
2023-02-09T12:05:52.369Z,45.43
2023-02-09T12:08:38.505Z,45.13
2023-02-09T12:11:45.464Z,44.50
2023-02-09T12:15:00.348Z,44.93
2023-02-09T12:17:43.492Z,44.81
2023-02-09T12:20:40.467Z,44.57
2023-02-09T12:23:23.799Z,44.19
2023-02-09T12:26:12.978Z,43.82
2023-02-09T12:28:43.538Z,45.26
2023-02-09T12:31:26.160Z,44.58
2023-02-09T12:33:59.393Z,44.85
2023-02-09T12:36:32.529Z,45.28
2023-02-09T12:39:05.074Z,44.63
2023-02-09T12:41:35.342Z,44.71
2023-02-09T12:44:25.222Z,44.43
2023-02-09T12:46:55.793Z,43.58
2023-02-09T12:49:29.118Z,44.45
2023-02-09T12:52:02.173Z,44.86
2023-02-09T12:54:38.075Z,44.38
2023-02-09T12:57:17.997Z,44.62
2023-02-09T12:59:51.160Z,44.34
2023-02-09T13:02:33.830Z,44.40
2023-02-09T13:05:08.045Z,44.51
2023-02-09T13:07:58.703Z,44.05
2023-02-09T13:10:41.267Z,44.20
2023-02-09T13:13:11.272Z,44.88
2023-02-09T13:15:50.953Z,44.98
2023-02-09T13:18:55.521Z,45.09
2023-02-09T13:21:31.601Z,44.20
2023-02-09T13:24:13.099Z,44.44
2023-02-09T13:26:53.630Z,44.68
2023-02-09T13:29:26.265Z,44.57
2023-02-09T13:32:10.541Z,43.87
2023-02-09T13:34:56.006Z,44.25
2023-02-09T13:37:45.040Z,44.31
2023-02-09T13:40:25.158Z,44.89
2023-02-09T13:42:57.254Z,45.03
2023-02-09T13:45:27.095Z,43.84
2023-02-09T13:47:56.195Z,43.78
2023-02-09T13:50:26.130Z,44.11
2023-02-09T13:52:53.256Z,43.87
2023-02-09T13:55:21.336Z,44.10
2023-02-09T13:58:18.040Z,43.91
2023-02-09T14:00:52.439Z,44.28
2023-02-09T14:03:58.935Z,44.17
2023-02-09T14:06:28.778Z,44.83
2023-02-09T14:09:00.043Z,44.57
2023-02-09T14:11:43.137Z,44.34
2023-02-09T14:14:18.037Z,44.54
2023-02-09T14:16:53.407Z,44.67
2023-02-09T14:19:33.431Z,44.56
2023-02-09T14:22:00.250Z,44.10
2023-02-09T14:24:28.975Z,44.24
2023-02-09T14:27:16.722Z,44.73
2023-02-09T14:29:47.668Z,44.60
2023-02-09T14:32:32.991Z,44.21
2023-02-09T14:35:20.503Z,43.98
2023-02-09T14:37:50.127Z,44.55
2023-02-09T14:40:31.726Z,44.10
2023-02-09T14:43:10.778Z,44.01
2023-02-09T14:45:40.931Z,44.44
2023-02-09T14:48:17.939Z,44.55
2023-02-09T14:50:45.176Z,46.03
2023-02-09T14:53:14.462Z,47.03
2023-02-09T14:55:41.728Z,47.45
2023-02-09T14:58:12.761Z,47.87
2023-02-09T15:00:39.701Z,48.10
2023-02-09T15:03:06.800Z,48.38
2023-02-09T15:05:33.780Z,48.53
2023-02-09T15:08:05.795Z,48.71
2023-02-09T15:10:36.173Z,49.31
2023-02-09T15:13:04.266Z,49.77
2023-02-09T15:15:33.235Z,49.47
2023-02-09T15:18:00.650Z,49.60
2023-02-09T15:20:29.399Z,49.63
2023-02-09T15:22:56.357Z,50.06
2023-02-09T15:25:25.349Z,50.42
2023-02-09T15:27:56.767Z,50.46
2023-02-09T15:30:31.778Z,50.22
2023-02-09T15:32:59.440Z,50.66
2023-02-09T15:35:27.518Z,51.18
2023-02-09T15:37:59.714Z,51.28
2023-02-09T15:40:50.021Z,51.19
2023-02-09T15:43:39.283Z,51.43
2023-02-09T15:46:26.575Z,51.63
2023-02-09T15:48:53.543Z,52.08
2023-02-09T15:51:22.125Z,52.16
2023-02-09T15:53:49.335Z,52.27
2023-02-09T15:56:16.433Z,52.38
2023-02-09T15:58:45.372Z,52.60
2023-02-09T16:01:14.910Z,53.02
2023-02-09T16:03:42.664Z,53.39
2023-02-09T16:06:21.665Z,53.35
2023-02-09T16:08:49.857Z,53.62
2023-02-09T16:11:17.634Z,54.16
2023-02-09T16:13:44.560Z,54.11
2023-02-09T16:16:17.252Z,54.47
2023-02-09T16:18:45.966Z,54.53
2023-02-09T16:21:26.737Z,55.11
2023-02-09T16:23:58.149Z,54.91
2023-02-09T16:26:27.364Z,55.05
2023-02-09T16:28:55.120Z,55.54
2023-02-09T16:31:23.621Z,55.68
2023-02-09T16:33:51.457Z,56.26
2023-02-09T16:36:31.825Z,55.83
2023-02-09T16:39:01.226Z,55.89
2023-02-09T16:41:46.864Z,56.09
2023-02-09T16:44:26.373Z,55.92
2023-02-09T16:46:56.771Z,56.04
2023-02-09T16:49:43.928Z,56.82
2023-02-09T16:52:20.865Z,56.67
2023-02-09T16:54:51.782Z,56.70
2023-02-09T16:57:21.195Z,56.36
2023-02-09T16:59:48.077Z,56.70
2023-02-09T17:02:36.938Z,56.55
2023-02-09T17:05:25.730Z,56.64
2023-02-09T17:08:01.989Z,56.71
2023-02-09T17:10:32.406Z,56.95
2023-02-09T17:13:04.866Z,56.61
2023-02-09T17:15:39.325Z,57.22
2023-02-09T17:18:09.697Z,57.58
2023-02-09T17:20:42.067Z,58.08
2023-02-09T17:23:22.938Z,58.29
2023-02-09T17:26:01.005Z,58.37
2023-02-09T17:28:31.326Z,58.56
2023-02-09T17:31:04.678Z,58.57
2023-02-09T17:33:34.323Z,58.90
2023-02-09T17:38:49.739Z,58.81
2023-02-09T17:41:33.760Z,58.90
2023-02-09T17:44:24.309Z,58.85
2023-02-09T17:46:59.099Z,59.13
2023-02-09T17:49:26.187Z,59.38
2023-02-09T17:51:55.935Z,59.52
2023-02-09T17:54:23.670Z,59.36
2023-02-09T17:56:50.798Z,59.61
2023-02-09T17:59:20.356Z,59.55
2023-02-09T18:01:51.222Z,59.99
2023-02-09T18:04:22.726Z,60.01
2023-02-09T18:06:49.956Z,59.81
2023-02-09T18:09:17.036Z,59.68
2023-02-09T18:11:54.341Z,59.60
2023-02-09T18:14:23.109Z,59.43
2023-02-09T18:16:50.994Z,59.58
2023-02-09T18:19:18.353Z,59.41
2023-02-09T18:22:03.209Z,59.02
2023-02-09T18:24:35.236Z,59.37
2023-02-09T18:27:03.385Z,59.32
2023-02-09T18:29:30.767Z,59.15
2023-02-09T18:32:01.046Z,59.79
2023-02-09T18:34:30.996Z,59.79
2023-02-09T18:36:58.293Z,59.75
2023-02-09T18:39:25.457Z,59.62
2023-02-09T18:41:55.121Z,59.55
2023-02-09T18:44:29.004Z,59.60
2023-02-09T18:46:57.828Z,59.82
2023-02-09T18:49:26.056Z,60.26
2023-02-09T18:51:53.336Z,59.98
2023-02-09T18:54:20.330Z,60.27
2023-02-09T18:56:47.665Z,60.25
2023-02-09T18:59:14.707Z,60.63
2023-02-09T19:01:42.069Z,60.34
2023-02-09T19:04:11.156Z,60.82
2023-02-09T19:06:38.993Z,60.82
2023-02-09T19:09:05.926Z,60.79
2023-02-09T19:11:32.987Z,60.81
2023-02-09T19:14:18.875Z,60.49
2023-02-09T19:16:48.936Z,60.75
2023-02-09T19:19:16.448Z,60.83
2023-02-09T19:21:43.554Z,60.66
2023-02-09T19:24:10.508Z,61.11
2023-02-09T19:26:37.508Z,60.86
2023-02-09T19:29:05.004Z,60.63
2023-02-09T19:31:32.027Z,60.56
2023-02-09T19:33:59.128Z,61.18
2023-02-09T19:36:27.957Z,61.04
2023-02-09T19:38:56.234Z,60.50
2023-02-09T19:41:25.643Z,60.56
2023-02-09T19:43:57.438Z,60.78
2023-02-09T19:46:25.574Z,61.19
2023-02-09T19:48:53.915Z,60.66
2023-02-09T19:51:21.910Z,61.03
2023-02-09T19:53:49.679Z,61.17
2023-02-09T19:56:19.510Z,61.33
2023-02-09T19:58:47.004Z,61.26
2023-02-09T20:01:13.916Z,61.27
2023-02-09T20:03:41.474Z,61.21
2023-02-09T20:06:11.867Z,60.78
2023-02-09T20:08:39.850Z,60.62
2023-02-09T20:11:08.371Z,60.34
2023-02-09T20:13:35.970Z,60.93
2023-02-09T20:16:11.172Z,61.21
2023-02-09T20:18:38.148Z,61.26
2023-02-09T20:21:09.632Z,61.62
2023-02-09T20:23:37.730Z,61.66
2023-02-09T20:26:17.126Z,61.68
2023-02-09T20:28:44.622Z,61.59
2023-02-09T20:31:12.618Z,61.95
2023-02-09T20:33:40.262Z,61.92
2023-02-09T20:36:08.996Z,61.97
2023-02-09T20:38:37.478Z,62.20
2023-02-09T20:41:13.774Z,62.02
2023-02-09T20:43:59.841Z,62.87
2023-02-09T20:46:44.082Z,62.71
2023-02-09T20:49:14.547Z,62.90
2023-02-09T20:51:41.471Z,63.21
2023-02-09T20:54:08.742Z,63.19
2023-02-09T20:56:36.394Z,63.44
2023-02-09T20:59:08.442Z,64.02
2023-02-09T21:01:42.441Z,64.26
2023-02-09T21:04:09.714Z,64.36
2023-02-09T21:06:39.197Z,64.30
2023-02-09T21:09:08.217Z,65.01
2023-02-09T21:11:35.296Z,65.07
2023-02-09T21:14:02.440Z,64.91
2023-02-09T21:16:30.951Z,64.93
2023-02-09T21:18:58.670Z,65.08
2023-02-09T21:21:27.120Z,65.25
2023-02-09T21:23:54.529Z,65.36
2023-02-09T21:26:24.901Z,65.37
2023-02-09T21:28:57.209Z,65.47
2023-02-09T21:31:27.141Z,65.47
2023-02-09T21:33:54.392Z,65.17
2023-02-09T21:36:21.410Z,65.58
2023-02-09T21:38:48.367Z,65.52
2023-02-09T21:41:40.500Z,64.96
2023-02-09T21:44:10.038Z,65.13
2023-02-09T21:46:37.195Z,65.13
2023-02-09T21:49:05.537Z,65.22
2023-02-09T21:51:32.456Z,64.80
2023-02-09T21:53:59.511Z,65.01
2023-02-09T21:56:26.498Z,64.94
2023-02-09T21:58:53.512Z,65.10
2023-02-09T22:01:22.888Z,64.73
2023-02-09T22:03:52.702Z,64.64
2023-02-09T22:06:38.180Z,64.74
2023-02-09T22:09:06.423Z,64.73
2023-02-09T22:11:33.754Z,64.93
2023-02-09T22:14:00.829Z,64.95
2023-02-09T22:16:29.570Z,64.18
2023-02-09T22:18:59.812Z,64.46
2023-02-09T22:21:31.320Z,63.87
2023-02-09T22:24:00.332Z,63.26
2023-02-09T22:26:27.252Z,62.71
2023-02-09T22:28:54.249Z,62.34
2023-02-09T22:31:21.868Z,62.48
2023-02-09T22:33:54.352Z,62.64
2023-02-09T22:36:23.456Z,62.34
2023-02-09T22:38:50.923Z,62.06
2023-02-09T22:41:23.963Z,62.03
2023-02-09T22:44:00.476Z,62.24
2023-02-09T22:46:31.181Z,62.04
2023-02-09T22:49:01.206Z,62.46
2023-02-09T22:51:30.191Z,61.92
2023-02-09T22:53:59.168Z,62.51
2023-02-09T22:56:29.023Z,62.75
2023-02-09T22:58:57.709Z,62.93
2023-02-09T23:01:24.761Z,63.39
2023-02-09T23:03:52.886Z,64.26
2023-02-09T23:06:23.507Z,64.65
2023-02-09T23:08:55.221Z,65.10
2023-02-09T23:11:22.609Z,66.06
2023-02-09T23:13:55.062Z,66.38
2023-02-09T23:16:34.516Z,66.63
2023-02-09T23:19:03.996Z,66.96
2023-02-09T23:21:35.256Z,66.88
2023-02-09T23:24:03.875Z,67.10
2023-02-09T23:26:31.138Z,67.33
2023-02-09T23:29:02.550Z,67.71
2023-02-09T23:31:30.141Z,67.93
2023-02-09T23:33:57.724Z,68.20
2023-02-09T23:36:27.971Z,68.53
2023-02-09T23:38:57.879Z,68.60
2023-02-09T23:41:25.800Z,68.46
2023-02-09T23:43:53.963Z,68.63
2023-02-09T23:46:24.188Z,68.46
2023-02-09T23:48:55.134Z,68.43
2023-02-09T23:51:28.677Z,68.34
2023-02-09T23:53:57.721Z,67.87
2023-02-09T23:56:25.011Z,67.28
2023-02-09T23:58:53.483Z,67.54
